Time;durP1;ratioP1;P1;durP2;ratioP2;P2;SDS_P1;SDS_P2;PMS_P1;PMS_P2;Temp;Humidity;BMP_temperature;BMP_pressure;BME280_temperature;BME280_humidity;BME280_pressure;Samples;Min_cycle;Max_cycle;Signal;HPM_P1;HPM_P2
2023/01/27 00:00:05;;;;;;;7.72;1.85;;;;;;;3.03;100.00;101979.97;4951402;28;20428;-77
2023/01/27 00:02:39;;;;;;;6.82;1.73;;;;;;;3.00;100.00;101980.09;4964259;28;20046;-77
2023/01/27 00:05:05;;;;;;;6.03;1.67;;;;;;;2.97;100.00;101975.84;4949892;29;20043;-76
2023/01/27 00:07:30;;;;;;;3.22;1.63;;;;;;;3.06;100.00;101985.91;4933733;29;20015;-77
2023/01/27 00:09:55;;;;;;;4.90;1.90;;;;;;;2.99;100.00;101975.78;4927720;28;20034;-77
2023/01/27 00:15:09;;;;;;;5.53;2.13;;;;;;;2.91;100.00;101992.03;4949435;28;20035;-77
2023/01/27 00:17:35;;;;;;;10.35;2.15;;;;;;;2.96;100.00;102001.38;4934047;29;20118;-78
2023/01/27 00:20:00;;;;;;;6.95;1.80;;;;;;;2.93;100.00;102000.72;4952022;28;20113;-78
2023/01/27 00:25:11;;;;;;;4.45;2.40;;;;;;;2.91;100.00;102005.22;4949440;28;20499;-76
2023/01/27 00:27:36;;;;;;;;;;;;;;;2.84;100.00;102017.88;4934273;29;20031;-78
2023/01/27 00:30:03;;;;;;;6.03;3.20;;;;;;;2.85;100.00;102013.44;4966134;28;19920;-78
2023/01/27 00:35:15;;;;;;;2.50;1.42;;;;;;;2.80;100.00;102029.50;4951662;28;20268;-77
2023/01/27 00:37:41;;;;;;;6.22;2.38;;;;;;;2.73;100.00;102025.50;4953899;28;20123;-77
2023/01/27 00:40:08;;;;;;;5.50;2.08;;;;;;;2.74;100.00;102038.59;4965283;28;20031;-77
2023/01/27 00:42:34;;;;;;;5.07;2.35;;;;;;;2.81;100.00;102039.16;4933240;29;20015;-75
2023/01/27 00:47:43;;;;;;;13.63;3.13;;;;;;;2.78;100.00;102043.72;4949056;28;20046;-76
2023/01/27 00:50:09;;;;;;;5.30;2.93;;;;;;;2.73;100.00;102041.31;4949548;28;20042;-75
2023/01/27 00:52:34;;;;;;;5.38;1.88;;;;;;;2.75;100.00;102044.72;4932965;29;20788;-77
2023/01/27 00:55:00;;;;;;;4.88;1.80;;;;;;;2.80;100.00;102061.16;4949226;29;20070;-77
2023/01/27 00:57:25;;;;;;;5.53;1.87;;;;;;;2.71;100.00;102048.44;4932878;29;20132;-77
2023/01/27 00:59:51;;;;;;;6.70;1.97;;;;;;;2.69;100.00;102056.47;4933753;28;20035;-76
2023/01/27 01:02:16;;;;;;;4.40;1.92;;;;;;;2.74;100.00;102070.25;4937532;28;20286;-77
2023/01/27 01:04:42;;;;;;;5.03;1.83;;;;;;;2.71;100.00;102069.56;4951571;28;20089;-76
2023/01/27 01:07:07;;;;;;;5.57;1.70;;;;;;;2.67;100.00;102071.50;4948225;28;20046;-77
2023/01/27 01:09:32;;;;;;;6.03;2.30;;;;;;;2.72;100.00;102064.22;4932435;29;20038;-77
2023/01/27 01:11:58;;;;;;;3.93;1.90;;;;;;;2.69;100.00;102058.22;4953252;28;20027;-77
2023/01/27 01:14:23;;;;;;;4.77;2.30;;;;;;;2.73;100.00;102060.63;4957777;28;20859;-77
2023/01/27 01:16:49;;;;;;;7.67;2.33;;;;;;;2.72;100.00;102066.84;4948843;28;20043;-76
2023/01/27 01:19:14;;;;;;;3.80;2.10;;;;;;;2.70;100.00;102063.44;4932542;28;20271;-77
2023/01/27 01:21:39;;;;;;;2.93;1.87;;;;;;;2.71;100.00;102059.00;4932188;29;20031;-77
2023/01/27 01:24:05;;;;;;;4.43;2.37;;;;;;;2.69;100.00;102058.22;4952011;28;20783;-77
2023/01/27 01:26:30;;;;;;;4.25;2.40;;;;;;;2.70;100.00;102075.78;4942526;29;20504;-77
2023/01/27 01:28:56;;;;;;;5.50;1.87;;;;;;;2.65;100.00;102060.19;4937592;28;20035;-77
2023/01/27 01:31:21;;;;;;;5.70;2.37;;;;;;;2.70;100.00;102071.34;4939251;28;20727;-77
2023/01/27 01:33:47;;;;;;;4.10;1.97;;;;;;;2.72;100.00;102060.72;4950952;28;20063;-77
2023/01/27 01:36:16;;;;;;;4.72;1.83;;;;;;;2.71;100.00;102064.28;4965002;28;20035;-77
2023/01/27 01:38:42;;;;;;;3.72;2.00;;;;;;;2.67;100.00;102068.88;4949503;29;20031;-77
2023/01/27 01:41:11;;;;;;;5.18;2.30;;;;;;;2.68;100.00;102067.94;4964772;28;20038;-77
2023/01/27 01:43:36;;;;;;;3.75;1.73;;;;;;;2.63;100.00;102069.09;4950513;28;20491;-77
2023/01/27 01:46:03;;;;;;;4.27;2.57;;;;;;;2.57;100.00;102066.78;4947952;28;20032;-77
2023/01/27 01:48:50;;;;;;;6.07;2.33;;;;;;;2.60;100.00;102077.16;4949525;28;20294;-77
2023/01/27 01:51:38;;;;;;;3.75;2.03;;;;;;;2.71;100.00;102086.22;4948975;28;20035;-77
2023/01/27 01:54:10;;;;;;;7.18;4.07;;;;;;;2.64;100.00;102083.97;4932520;29;20031;-77
2023/01/27 01:56:53;;;;;;;5.20;2.40;;;;;;;2.64;100.00;102078.72;4932840;29;20027;-75
2023/01/27 01:59:29;;;;;;;5.55;2.08;;;;;;;2.64;100.00;102079.56;4946928;28;20027;-75
2023/01/27 02:01:58;;;;;;;4.95;2.53;;;;;;;2.59;100.00;102086.84;4951219;29;20039;-75
2023/01/27 02:04:29;;;;;;;4.38;2.40;;;;;;;2.49;100.00;102083.84;4936048;29;20023;-76
2023/01/27 02:07:06;;;;;;;4.78;2.25;;;;;;;2.51;100.00;102092.53;4935214;28;20420;-75
2023/01/27 02:09:31;;;;;;;6.25;2.63;;;;;;;2.49;100.00;102097.03;4937025;29;20053;-76
2023/01/27 02:11:57;;;;;;;4.93;2.20;;;;;;;2.47;100.00;102096.25;4967163;28;20019;-76
2023/01/27 02:14:24;;;;;;;4.68;2.00;;;;;;;2.48;100.00;102100.59;4953473;28;20492;-75
2023/01/27 02:16:49;;;;;;;5.35;2.10;;;;;;;2.49;100.00;102110.19;4947297;28;20070;-77
2023/01/27 02:19:26;;;;;;;2.90;2.42;;;;;;;2.54;100.00;102105.53;4939408;28;20483;-77
2023/01/27 02:21:55;;;;;;;5.15;2.78;;;;;;;2.51;100.00;102110.97;4940561;28;20027;-78
2023/01/27 02:24:25;;;;;;;12.73;3.22;;;;;;;2.49;100.00;102118.09;4968400;28;20030;-77
2023/01/27 02:26:51;;;;;;;3.80;2.10;;;;;;;2.48;100.00;102113.78;4953908;28;20046;-76
2023/01/27 02:29:16;;;;;;;5.20;2.38;;;;;;;2.46;100.00;102102.47;4939800;28;20039;-76
2023/01/27 02:31:41;;;;;;;3.20;1.95;;;;;;;2.49;100.00;102112.84;4934329;29;20374;-75
2023/01/27 02:34:15;;;;;;;7.18;2.95;;;;;;;2.41;100.00;102108.88;4938463;29;20441;-77
2023/01/27 02:36:49;;;;;;;3.58;2.05;;;;;;;2.46;100.00;102120.91;4949117;29;20135;-75
2023/01/27 02:39:17;;;;;;;4.25;2.50;;;;;;;2.46;100.00;102114.78;4931364;28;20034;-76
2023/01/27 02:41:47;;;;;;;4.30;2.55;;;;;;;2.47;100.00;102119.13;4955734;28;20030;-76
2023/01/27 02:44:12;;;;;;;7.35;2.22;;;;;;;2.49;100.00;102126.00;4932758;28;20039;-76
2023/01/27 02:46:38;;;;;;;4.68;2.33;;;;;;;2.49;100.00;102120.75;4954055;28;20035;-76
2023/01/27 02:49:04;;;;;;;9.67;3.67;;;;;;;2.45;100.00;102113.06;4957739;28;20761;-75
2023/01/27 02:51:29;;;;;;;7.43;2.90;;;;;;;2.40;100.00;102110.66;4956646;28;20378;-75
2023/01/27 02:53:56;;;;;;;7.70;2.42;;;;;;;2.43;100.00;102134.22;4932166;28;20039;-78
2023/01/27 02:56:22;;;;;;;4.97;2.40;;;;;;;2.45;100.00;102147.34;4955837;28;20041;-75
2023/01/27 02:58:47;;;;;;;3.90;2.67;;;;;;;2.41;100.00;102132.59;4927577;28;20035;-75
2023/01/27 03:01:24;;;;;;;3.33;1.92;;;;;;;2.47;100.00;102150.75;4954602;28;20514;-76
2023/01/27 03:03:50;;;;;;;2.78;1.90;;;;;;;2.41;100.00;102144.00;4926185;28;20031;-76
2023/01/27 03:06:18;;;;;;;3.60;2.35;;;;;;;2.33;100.00;102139.09;4933556;28;20066;-75
2023/01/27 03:08:44;;;;;;;3.67;2.15;;;;;;;2.37;100.00;102139.81;4926781;29;20122;-75
2023/01/27 03:11:12;;;;;;;2.92;1.80;;;;;;;2.41;100.00;102151.91;4930261;28;20477;-75
2023/01/27 03:13:38;;;;;;;4.25;2.25;;;;;;;2.38;100.00;102146.78;4959402;28;20037;-77
2023/01/27 03:18:49;;;;;;;;;;;;;;;2.35;100.00;102149.56;4958954;28;20047;-76
2023/01/27 03:21:17;;;;;;;3.30;1.80;;;;;;;2.33;100.00;102151.44;4958458;28;20036;-77
2023/01/27 03:23:44;;;;;;;5.40;2.65;;;;;;;2.28;100.00;102140.25;4935849;29;20070;-77
2023/01/27 03:26:10;;;;;;;5.50;2.65;;;;;;;2.27;100.00;102156.97;4948651;28;20019;-77
2023/01/27 03:28:39;;;;;;;5.13;2.40;;;;;;;2.22;100.00;102144.03;4944162;29;20035;-76
2023/01/27 03:31:20;;;;;;;4.80;1.83;;;;;;;2.19;100.00;102140.69;4961187;28;20045;-77
2023/01/27 03:33:58;;;;;;;3.88;2.08;;;;;;;2.23;100.00;102156.28;4934241;28;20057;-77
2023/01/27 03:47:24;;;;;;;4.35;2.10;;;;;;;2.14;100.00;102156.75;4956636;28;20491;-77
2023/01/27 03:49:51;;;;;;;3.60;2.53;;;;;;;2.20;100.00;102164.34;4954918;28;20331;-77
2023/01/27 03:52:16;;;;;;;5.43;2.73;;;;;;;2.13;100.00;102167.34;4956649;28;20117;-77
2023/01/27 03:54:41;;;;;;;9.97;3.10;;;;;;;2.11;100.00;102165.63;4959976;28;20267;-77
2023/01/27 03:57:07;;;;;;;4.28;2.70;;;;;;;2.14;100.00;102174.34;4965188;28;20472;-77
2023/01/27 03:59:33;;;;;;;4.50;2.40;;;;;;;2.12;100.00;102171.75;4933418;29;20119;-77
2023/01/27 04:07:28;;;;;;;5.45;2.80;;;;;;;2.23;100.00;102181.81;4950372;28;20042;-77
2023/01/27 04:09:54;;;;;;;7.50;2.50;;;;;;;2.13;100.00;102175.25;4933420;29;20023;-78
2023/01/27 04:12:19;;;;;;;5.93;2.88;;;;;;;2.14;100.00;102169.06;4933453;29;20293;-77
2023/01/27 04:14:44;;;;;;;4.27;2.50;;;;;;;2.14;100.00;102174.34;4949361;28;20099;-77
2023/01/27 04:17:12;;;;;;;2.97;2.30;;;;;;;2.21;100.00;102187.13;4949489;28;20062;-77
2023/01/27 04:19:38;;;;;;;2.42;2.13;;;;;;;2.20;100.00;102177.53;4949384;28;20271;-77
2023/01/27 04:22:05;;;;;;;3.80;2.28;;;;;;;2.11;100.00;102181.44;4933051;29;20074;-76
2023/01/27 04:24:30;;;;;;;2.42;1.88;;;;;;;2.18;100.00;102176.75;4933233;29;20439;-78
2023/01/27 04:27:02;;;;;;;2.77;1.97;;;;;;;2.19;100.00;102183.72;4934939;29;20031;-78
2023/01/27 04:29:30;;;;;;;5.32;2.00;;;;;;;2.23;100.00;102179.16;4952013;28;20313;-77
2023/01/27 04:31:56;;;;;;;4.90;2.63;;;;;;;2.19;100.00;102177.59;4939697;28;20034;-77
2023/01/27 04:34:22;;;;;;;4.15;2.15;;;;;;;2.13;100.00;102175.25;4948694;28;20039;-77
2023/01/27 04:36:47;;;;;;;2.33;1.20;;;;;;;2.15;100.00;102170.75;4939795;28;20042;-78
2023/01/27 04:39:14;;;;;;;3.58;1.67;;;;;;;2.23;100.00;102174.75;4956377;28;20157;-77
2023/01/27 04:41:39;;;;;;;1.95;1.33;;;;;;;2.22;100.00;102173.00;4925385;29;20519;-77
2023/01/27 04:44:05;;;;;;;2.20;1.00;;;;;;;2.13;100.00;102156.78;4943190;28;20039;-77
2023/01/27 04:46:31;;;;;;;;;;;;;;;2.19;100.00;102161.78;4953382;28;20322;-77
2023/01/27 04:48:57;;;;;;;4.18;1.27;;;;;;;2.18;100.00;102150.41;4954726;28;19914;-77
2023/01/27 04:51:22;;;;;;;1.98;1.17;;;;;;;2.08;100.00;102128.91;4937470;28;20041;-78
2023/01/27 04:53:48;;;;;;;6.68;1.20;;;;;;;2.14;100.00;102130.38;4956383;28;20047;-78
2023/01/27 04:56:26;;;;;;;2.28;1.00;;;;;;;2.14;100.00;102127.75;4955043;28;20269;-77
2023/01/27 04:58:52;;;;;;;3.58;1.10;;;;;;;2.15;100.00;102118.06;4953778;28;20051;-77
2023/01/27 05:01:18;;;;;;;8.10;1.88;;;;;;;2.16;100.00;102114.50;4953935;28;20039;-77
2023/01/27 05:03:43;;;;;;;1.73;1.40;;;;;;;2.13;100.00;102109.38;4954394;28;20027;-76
2023/01/27 05:06:12;;;;;;;4.97;1.05;;;;;;;2.13;100.00;102114.63;4940758;28;20077;-76
2023/01/27 05:08:38;;;;;;;2.95;1.20;;;;;;;2.14;100.00;102105.81;4956274;28;20019;-77
2023/01/27 05:11:04;;;;;;;2.97;1.60;;;;;;;2.07;100.00;102100.84;4942992;28;20079;-75
2023/01/27 05:13:30;;;;;;;3.13;1.08;;;;;;;2.04;100.00;102108.06;4937326;28;20043;-77
2023/01/27 05:16:23;;;;;;;1.98;1.67;;;;;;;2.17;100.00;102116.22;4957419;28;20063;-78
2023/01/27 05:18:49;;;;;;;3.08;1.30;;;;;;;2.14;100.00;102121.63;4954009;28;20055;-76
2023/01/27 05:21:18;;;;;;;3.03;1.55;;;;;;;2.13;100.00;102110.25;4958743;28;20062;-77
2023/01/27 05:23:43;;;;;;;3.05;1.40;;;;;;;2.07;100.00;102111.38;4939278;29;20109;-76
2023/01/27 05:26:14;;;;;;;2.17;1.58;;;;;;;2.13;100.00;102117.28;4943702;28;20066;-76
2023/01/27 05:28:41;;;;;;;1.38;1.15;;;;;;;2.12;100.00;102132.25;4940423;28;20043;-77
2023/01/27 05:31:13;;;;;;;1.85;1.48;;;;;;;2.02;100.00;102118.66;4933335;28;20147;-77
2023/01/27 05:33:40;;;;;;;3.78;2.10;;;;;;;2.05;100.00;102113.22;4961969;28;20035;-76
2023/01/27 05:36:07;;;;;;;6.03;2.42;;;;;;;2.04;100.00;102101.00;4960802;28;20519;-77
2023/01/27 05:38:33;;;;;;;2.47;1.65;;;;;;;2.05;100.00;102102.69;4957186;28;20023;-77
2023/01/27 05:41:02;;;;;;;2.58;1.85;;;;;;;2.07;100.00;102100.00;4960760;28;20499;-77
2023/01/27 05:43:33;;;;;;;6.15;2.03;;;;;;;2.07;100.00;102084.19;4958554;28;20039;-77
2023/01/27 05:46:05;;;;;;;4.68;1.67;;;;;;;2.14;100.00;102096.13;4961455;28;20783;-77
2023/01/27 05:48:32;;;;;;;2.55;1.33;;;;;;;2.10;100.00;102087.50;4958052;28;20031;-75
2023/01/27 05:50:58;;;;;;;1.55;1.30;;;;;;;2.13;100.00;102094.44;4946882;28;20023;-77
2023/01/27 05:53:24;;;;;;;4.55;1.85;;;;;;;2.08;100.00;102089.41;4959334;28;20062;-76
2023/01/27 05:55:50;;;;;;;5.35;1.83;;;;;;;1.99;100.00;102083.69;4931790;28;20481;-76
2023/01/27 05:58:16;;;;;;;4.78;1.55;;;;;;;1.98;100.00;102084.63;4960087;28;20034;-77
2023/01/27 06:00:42;;;;;;;2.00;1.58;;;;;;;2.01;100.00;102085.31;4958680;28;20448;-77
2023/01/27 06:03:07;;;;;;;1.33;1.23;;;;;;;1.96;100.00;102071.53;4961080;28;20022;-77
2023/01/27 06:05:32;;;;;;;2.80;1.70;;;;;;;2.02;100.00;102063.34;4959227;28;20043;-77
2023/01/27 06:07:58;;;;;;;1.87;1.50;;;;;;;1.89;100.00;102049.03;4960306;28;20093;-77
2023/01/27 06:10:23;;;;;;;1.43;1.20;;;;;;;1.90;100.00;102040.25;4959754;28;20038;-76
2023/01/27 06:12:48;;;;;;;2.67;1.77;;;;;;;1.92;100.00;102042.78;4931722;28;20287;-76
2023/01/27 06:15:14;;;;;;;2.83;1.70;;;;;;;1.99;100.00;102046.81;4961600;28;20777;-77
2023/01/27 06:17:39;;;;;;;3.47;2.40;;;;;;;1.93;100.00;102045.34;4959911;28;20345;-77
2023/01/27 06:20:05;;;;;;;1.45;1.30;;;;;;;1.94;100.00;102051.47;4953102;28;20042;-77
2023/01/27 06:22:30;;;;;;;2.65;1.50;;;;;;;1.98;100.00;102068.84;4953193;28;20066;-76
2023/01/27 06:24:55;;;;;;;2.93;1.60;;;;;;;1.95;100.00;102054.03;4954139;28;20031;-76
2023/01/27 06:27:21;;;;;;;3.27;1.50;;;;;;;1.87;100.00;102048.25;4940122;28;20039;-76
2023/01/27 06:29:46;;;;;;;1.80;1.20;;;;;;;1.89;100.00;102049.03;4936558;29;20330;-77
2023/01/27 06:32:11;;;;;;;2.87;1.43;;;;;;;1.92;100.00;102041.03;4936507;29;20408;-77
2023/01/27 06:34:37;;;;;;;2.23;1.37;;;;;;;1.94;100.00;102035.66;4952614;28;20735;-76
2023/01/27 06:37:02;;;;;;;2.93;1.30;;;;;;;1.92;100.00;102038.38;4959332;28;20031;-76
2023/01/27 06:39:28;;;;;;;1.55;1.30;;;;;;;1.94;100.00;102047.03;4965553;28;20034;-75
2023/01/27 06:41:53;;;;;;;1.97;1.50;;;;;;;1.92;100.00;102037.50;4953415;28;20099;-75
2023/01/27 06:44:18;;;;;;;3.40;1.20;;;;;;;1.92;100.00;102048.91;4950846;28;20032;-76
2023/01/27 06:46:44;;;;;;;3.77;1.30;;;;;;;1.95;100.00;102063.72;4966075;28;20293;-76
2023/01/27 06:49:09;;;;;;;2.57;1.40;;;;;;;1.96;100.00;102075.94;4933378;28;20130;-76
2023/01/27 06:51:34;;;;;;;1.30;1.20;;;;;;;1.97;100.00;102078.53;4965573;28;20488;-76
2023/01/27 06:54:00;;;;;;;2.70;1.40;;;;;;;1.96;100.00;102087.34;4950633;28;20299;-76
2023/01/27 06:56:25;;;;;;;4.47;1.37;;;;;;;2.02;100.00;102075.66;4962471;28;20329;-75
2023/01/27 06:58:50;;;;;;;2.63;1.50;;;;;;;2.05;100.00;102083.41;4944489;28;20046;-76
2023/01/27 07:01:16;;;;;;;2.50;1.60;;;;;;;2.03;100.00;102078.19;4945198;28;20306;-76
2023/01/27 07:03:42;;;;;;;4.43;1.42;;;;;;;1.85;100.00;102053.63;4949607;28;20031;-76
2023/01/27 07:06:09;;;;;;;3.30;2.15;;;;;;;1.95;100.00;102069.84;4951330;28;20523;-76
2023/01/27 07:08:36;;;;;;;3.20;1.73;;;;;;;1.95;100.00;102064.56;4934105;29;20042;-77
2023/01/27 07:11:03;;;;;;;1.70;1.48;;;;;;;1.83;100.00;102046.72;4934905;28;20031;-76
2023/01/27 07:13:28;;;;;;;4.55;1.48;;;;;;;1.88;100.00;102044.72;4938939;28;20027;-76
2023/01/27 07:15:55;;;;;;;1.70;1.60;;;;;;;1.90;100.00;102040.25;4945625;28;20082;-76
2023/01/27 07:18:20;;;;;;;4.47;1.70;;;;;;;1.92;100.00;102045.41;4955835;28;20783;-76
2023/01/27 07:20:46;;;;;;;1.70;1.55;;;;;;;1.86;100.00;102038.69;4953602;28;20067;-75
2023/01/27 07:23:12;;;;;;;2.45;2.13;;;;;;;1.85;100.00;102050.13;4942690;28;20043;-76
2023/01/27 07:25:38;;;;;;;2.75;1.80;;;;;;;1.87;100.00;102056.16;4927394;29;20100;-76
2023/01/27 07:28:04;;;;;;;3.08;2.30;;;;;;;1.79;100.00;102053.06;4957615;28;20047;-75
2023/01/27 07:30:32;;;;;;;2.75;2.00;;;;;;;1.78;100.00;102060.13;4955215;28;20034;-75
2023/01/27 07:33:09;;;;;;;3.88;2.72;;;;;;;1.86;100.00;102071.13;4934235;28;20397;-76
2023/01/27 07:35:35;;;;;;;2.80;2.20;;;;;;;1.85;100.00;102068.56;4926593;29;20035;-75
2023/01/27 07:38:01;;;;;;;4.35;2.05;;;;;;;1.85;100.00;102068.56;4956607;28;20473;-76
2023/01/27 07:40:26;;;;;;;8.93;2.15;;;;;;;1.91;100.00;102070.91;4957939;28;20396;-75
2023/01/27 07:42:52;;;;;;;3.03;2.10;;;;;;;1.79;100.00;102059.19;4955107;28;20046;-75
2023/01/27 07:45:17;;;;;;;4.03;2.28;;;;;;;1.81;100.00;102067.00;4938232;28;20082;-75
2023/01/27 07:47:43;;;;;;;2.40;2.05;;;;;;;1.75;100.00;102072.56;4933043;29;20102;-74
2023/01/27 07:50:10;;;;;;;4.87;2.50;;;;;;;1.79;100.00;102085.50;4950640;28;20048;-75
2023/01/27 07:52:36;;;;;;;3.15;1.98;;;;;;;1.84;100.00;102082.66;4951020;28;20106;-76
2023/01/27 07:55:01;;;;;;;2.23;1.87;;;;;;;1.80;100.00;102076.69;4964182;28;20469;-76
2023/01/27 07:57:26;;;;;;;3.00;1.93;;;;;;;1.76;100.00;102079.56;4948735;28;21003;-76
2023/01/27 07:59:54;;;;;;;3.13;1.67;;;;;;;1.77;100.00;102099.69;4949682;28;20282;-77
2023/01/27 08:02:21;;;;;;;3.33;1.40;;;;;;;1.72;100.00;102107.78;4949242;29;20093;-75
2023/01/27 08:04:49;;;;;;;2.42;1.60;;;;;;;1.77;100.00;102108.44;4948173;29;20042;-76
2023/01/27 08:07:16;;;;;;;2.75;1.77;;;;;;;1.72;100.00;102104.31;4949206;29;20041;-75
2023/01/27 08:09:41;;;;;;;;;;;;;;;1.61;100.00;102097.75;4949777;28;20062;-76
2023/01/27 08:12:06;;;;;;;2.15;1.60;;;;;;;1.61;100.00;102103.00;4958954;28;20390;-76
2023/01/27 08:14:31;;;;;;;2.05;1.30;;;;;;;1.66;100.00;102100.16;4954878;28;20489;-76
2023/01/27 08:16:57;;;;;;;3.47;1.27;;;;;;;1.58;100.00;102076.84;4955404;28;20261;-75
2023/01/27 08:19:22;;;;;;;4.40;1.35;;;;;;;1.66;100.00;102084.38;4938110;28;20427;-76
2023/01/27 08:21:47;;;;;;;2.60;1.20;;;;;;;1.67;100.00;102065.88;4955941;28;20142;-75
2023/01/27 08:24:13;;;;;;;1.43;1.10;;;;;;;1.72;100.00;102051.66;4957140;28;20041;-75
2023/01/27 08:26:38;;;;;;;1.27;1.10;;;;;;;1.64;100.00;102028.34;4954676;28;20382;-76
2023/01/27 08:29:04;;;;;;;1.10;0.80;;;;;;;1.67;100.00;102002.69;4956208;28;20033;-76
2023/01/27 08:31:29;;;;;;;4.90;1.00;;;;;;;1.42;100.00;101924.06;4952128;28;20290;-75
2023/01/27 08:33:54;;;;;;;1.93;1.50;;;;;;;1.65;100.00;101930.84;4953563;28;20035;-75
2023/01/27 08:36:22;;;;;;;3.67;2.13;;;;;;;1.71;100.00;101928.81;4957140;28;20293;-75
2023/01/27 08:38:50;;;;;;;2.67;0.90;;;;;;;1.71;100.00;101915.66;4952304;28;20799;-76
2023/01/27 08:41:19;;;;;;;1.98;1.15;;;;;;;1.67;100.00;101888.66;4955279;28;20407;-76
2023/01/27 08:43:45;;;;;;;5.32;1.90;;;;;;;1.65;100.00;101872.06;4952137;28;20019;-75
2023/01/27 08:46:11;;;;;;;1.45;1.20;;;;;;;1.71;100.00;101836.66;4928117;28;20047;-76
2023/01/27 08:48:37;;;;;;;;;;;;;;;1.75;100.00;101825.06;4955301;28;20057;-76
2023/01/27 08:51:03;;;;;;;3.67;1.30;;;;;;;1.67;100.00;101780.69;4932318;28;20138;-76
2023/01/27 08:53:29;;;;;;;3.13;1.20;;;;;;;1.67;100.00;101757.84;4954010;28;20035;-75
2023/01/27 08:55:57;;;;;;;4.97;1.30;;;;;;;1.70;100.00;101738.41;4953212;28;20031;-75
2023/01/27 08:58:24;;;;;;;2.83;1.23;;;;;;;1.76;100.00;101717.03;4955021;28;20066;-76
2023/01/27 09:00:49;;;;;;;3.50;1.80;;;;;;;1.84;100.00;101727.16;4953433;28;20400;-75
2023/01/27 09:03:15;;;;;;;2.53;1.00;;;;;;;1.90;100.00;101716.28;4954119;28;20038;-76
2023/01/27 09:05:41;;;;;;;2.35;1.30;;;;;;;1.91;100.00;101717.97;4939184;28;20036;-76
2023/01/27 09:08:07;;;;;;;4.18;1.95;;;;;;;1.93;100.00;101710.00;4955607;28;20097;-75
2023/01/27 09:10:36;;;;;;;;;;;;;;;1.95;100.00;101719.53;4952256;28;20031;-76
2023/01/27 09:13:01;;;;;;;2.33;1.15;;;;;;;1.81;100.00;101672.88;4953808;28;19938;-76
2023/01/27 09:15:27;;;;;;;1.37;1.03;;;;;;;1.93;100.00;101679.25;4953416;28;20027;-75
2023/01/27 09:17:52;;;;;;;0.90;0.73;;;;;;;1.86;100.00;101659.44;4926622;28;20287;-76
2023/01/27 09:20:17;;;;;;;2.03;1.10;;;;;;;2.00;100.00;101683.25;4953413;28;20027;-76
2023/01/27 09:22:43;;;;;;;1.55;1.25;;;;;;;2.00;100.00;101667.44;4939338;29;20447;-76
2023/01/27 09:25:16;;;;;;;3.20;1.17;;;;;;;2.10;100.00;101681.78;4958510;28;20141;-75
2023/01/27 09:27:44;;;;;;;5.38;1.52;;;;;;;2.08;100.00;101685.44;4952289;28;20035;-76
2023/01/27 09:30:12;;;;;;;2.63;1.38;;;;;;;2.15;100.00;101712.31;4954396;28;20389;-76
2023/01/27 09:32:37;;;;;;;5.75;1.90;;;;;;;2.20;100.00;101716.41;4952554;28;20023;-75
2023/01/27 09:35:03;;;;;;;1.35;1.15;;;;;;;2.18;100.00;101717.41;4955098;28;20051;-76
2023/01/27 09:37:30;;;;;;;2.28;1.17;;;;;;;2.13;100.00;101687.84;4951837;28;20043;-76
2023/01/27 09:40:01;;;;;;;1.23;1.13;;;;;;;2.03;100.00;101662.00;4941038;28;20492;-76
2023/01/27 09:43:08;;;;;;;4.38;1.13;;;;;;;1.94;100.00;101656.38;4952894;28;20038;-76
2023/01/27 09:45:51;;;;;;;6.30;2.03;;;;;;;2.06;100.00;101656.56;4943390;28;20047;-75
2023/01/27 09:48:40;;;;;;;2.58;1.30;;;;;;;2.07;100.00;101647.72;4953830;28;20027;-76
2023/01/27 09:51:15;;;;;;;4.28;1.05;;;;;;;2.00;100.00;101620.03;4954047;28;20038;-75
2023/01/27 09:53:54;;;;;;;1.38;1.00;;;;;;;2.17;100.00;101626.13;4950294;28;20023;-76
2023/01/27 09:56:32;;;;;;;1.42;0.98;;;;;;;2.29;100.00;101655.28;4953207;28;20046;-77
2023/01/27 09:59:45;;;;;;;3.78;0.90;;;;;;;2.39;100.00;101678.47;4946829;28;20114;-76
2023/01/27 10:02:31;;;;;;;1.55;1.02;;;;;;;2.38;100.00;101658.31;4910029;29;20031;-76
2023/01/27 10:05:03;;;;;;;3.08;1.10;;;;;;;2.33;100.00;101648.03;4954497;28;20028;-76
2023/01/27 10:07:43;;;;;;;3.65;0.98;;;;;;;2.27;100.00;101645.75;4946401;28;20145;-76
2023/01/27 10:10:36;;;;;;;1.23;1.10;;;;;;;2.42;100.00;101663.34;4946384;28;20066;-76
2023/01/27 10:13:40;;;;;;;1.88;1.00;;;;;;;2.44;100.00;101655.34;4949769;28;20031;-76
2023/01/27 10:16:21;;;;;;;1.17;0.73;;;;;;;2.50;100.00;101668.16;4940982;29;20038;-76
2023/01/27 10:19:26;;;;;;;1.63;1.38;;;;;;;2.48;100.00;101656.84;4949502;28;20295;-77
2023/01/27 10:22:04;;;;;;;3.10;1.00;;;;;;;2.39;100.00;101642.44;4909149;29;20048;-76
2023/01/27 10:24:56;;;;;;;1.75;1.13;;;;;;;2.36;100.00;101647.88;4951028;28;20039;-77
2023/01/27 10:27:23;;;;;;;1.90;1.00;;;;;;;2.36;100.00;101678.66;4927084;29;20051;-77
2023/01/27 10:29:57;;;;;;;3.95;1.08;;;;;;;2.33;100.00;101704.22;4933165;29;20027;-77
2023/01/27 10:32:31;;;;;;;3.47;1.52;;;;;;;2.20;100.00;101708.50;4951195;28;20134;-77
2023/01/27 10:35:03;;;;;;;2.75;1.75;;;;;;;2.31;100.00;101765.88;4941730;29;20027;-78
2023/01/27 10:37:55;;;;;;;4.90;1.10;;;;;;;2.33;100.00;101775.38;4950917;28;20039;-76
2023/01/27 10:40:53;;;;;;;7.35;1.88;;;;;;;2.31;100.00;101776.41;4964810;28;20496;-76
2023/01/27 10:43:27;;;;;;;2.65;1.25;;;;;;;2.36;100.00;101798.09;4937612;29;20051;-76
2023/01/27 10:46:06;;;;;;;3.15;1.48;;;;;;;2.40;100.00;101819.88;4950225;28;20031;-77
2023/01/27 10:48:47;;;;;;;3.75;1.65;;;;;;;2.37;100.00;101812.97;4950535;28;20031;-77
2023/01/27 10:51:37;;;;;;;3.25;1.35;;;;;;;2.27;100.00;101766.97;4949184;28;20034;-76
2023/01/27 10:54:07;;;;;;;3.33;1.50;;;;;;;2.30;100.00;101757.13;4964300;28;20816;-77
2023/01/27 10:56:47;;;;;;;3.38;1.10;;;;;;;2.30;100.00;101716.75;4950570;28;20256;-78
2023/01/27 10:59:25;;;;;;;1.75;1.35;;;;;;;2.35;100.00;101667.25;4953157;28;20031;-76
2023/01/27 11:02:13;;;;;;;2.00;1.05;;;;;;;2.44;100.00;101643.00;4933583;29;20035;-77
2023/01/27 11:04:52;;;;;;;1.60;1.13;;;;;;;2.60;100.00;101592.91;4933031;29;20042;-77
2023/01/27 11:07:20;;;;;;;1.20;0.93;;;;;;;2.51;100.00;101436.13;4954442;28;20117;-77
2023/01/27 11:09:56;;;;;;;4.70;1.08;;;;;;;2.83;100.00;101440.34;4942615;28;20074;-76
2023/01/27 11:12:30;;;;;;;1.88;0.90;;;;;;;2.95;100.00;101387.69;4957886;28;20026;-77
2023/01/27 11:14:58;;;;;;;3.40;0.95;;;;;;;3.08;100.00;101321.75;4964859;28;20038;-77
2023/01/27 11:18:11;;;;;;;2.10;0.80;;;;;;;3.15;100.00;101243.91;4950154;28;20037;-77
2023/01/27 11:20:41;;;;;;;1.58;0.68;;;;;;;2.98;100.00;101051.63;4908941;29;20092;-76
2023/01/27 11:23:20;;;;;;;2.85;0.85;;;;;;;3.41;100.00;101092.66;4893799;29;20044;-76
2023/01/27 11:26:27;;;;;;;1.85;0.70;;;;;;;3.47;100.00;100981.34;4893614;29;20060;-76
2023/01/27 11:29:30;;;;;;;3.88;1.00;;;;;;;3.74;100.00;101000.44;4901405;29;20119;-77
2023/01/27 11:32:14;;;;;;;2.70;1.02;;;;;;;3.73;100.00;100887.88;4909069;29;20186;-76
2023/01/27 11:35:03;;;;;;;2.17;0.80;;;;;;;3.56;100.00;100838.13;4893199;29;20383;-76
2023/01/27 11:37:33;;;;;;;10.38;2.45;;;;;;;3.45;100.00;100788.78;4893243;29;20569;-76
2023/01/27 11:40:00;;;;;;;2.28;1.05;;;;;;;3.32;100.00;100748.41;4909108;29;20047;-76
2023/01/27 11:42:29;;;;;;;;;;;;;;;3.13;100.00;100719.94;4877785;29;20106;-75
2023/01/27 11:44:56;;;;;;;3.85;1.98;;;;;;;3.27;100.00;100838.47;4908605;29;19923;-77
2023/01/27 11:47:30;;;;;;;2.97;1.02;;;;;;;3.14;100.00;100769.97;4893254;29;20095;-75
2023/01/27 11:49:56;;;;;;;1.92;1.00;;;;;;;3.11;100.00;100790.44;4908692;29;20044;-75
2023/01/27 11:52:26;;;;;;;3.10;0.90;;;;;;;3.20;100.00;100821.41;4877061;29;20039;-75
2023/01/27 11:55:05;;;;;;;2.90;1.02;;;;;;;2.85;100.00;100695.63;4913664;29;20058;-75
2023/01/27 11:57:32;;;;;;;3.05;1.20;;;;;;;2.71;100.00;100711.63;4936632;28;20086;-75
2023/01/27 12:00:03;;;;;;;2.30;1.00;;;;;;;2.94;100.00;100807.50;4957385;28;20100;-76
2023/01/27 12:02:41;;;;;;;3.35;0.63;;;;;;;2.95;100.00;100812.66;4949577;28;20125;-75
2023/01/27 12:05:13;;;;;;;1.67;1.30;;;;;;;2.74;100.00;100729.88;4948770;28;20427;-75
2023/01/27 12:07:53;;;;;;;3.05;0.98;;;;;;;2.80;100.00;100762.84;4947745;28;20042;-76